Time;durP1;ratioP1;P1;durP2;ratioP2;P2;SDS_P1;SDS_P2;PMS_P1;PMS_P2;Temp;Humidity;BMP_temperature;BMP_pressure;BME280_temperature;BME280_humidity;BME280_pressure;Samples;Min_cycle;Max_cycle;Signal;HPM_P1;HPM_P2
2023/08/11 00:03:40;;;;;;;6.38;3.35;;;;;16.60;101467.00;;;;10244091;28;20214;-76
2023/08/11 00:08:41;;;;;;;6.90;3.95;;;;;16.40;101468.00;;;;10255669;28;20207;-76
2023/08/11 00:13:43;;;;;;;6.82;4.00;;;;;16.30;101451.00;;;;10242174;28;20285;-75
2023/08/11 00:18:45;;;;;;;5.72;3.47;;;;;16.20;101454.00;;;;10258787;28;22165;-73
2023/08/11 00:23:47;;;;;;;7.30;3.92;;;;;16.20;101456.00;;;;10254466;28;20199;-77
2023/08/11 00:28:48;;;;;;;8.52;3.72;;;;;16.20;101447.00;;;;10256441;28;20207;-77
2023/08/11 00:33:51;;;;;;;7.22;3.42;;;;;16.20;101431.00;;;;10254649;28;20238;-75
2023/08/11 00:39:00;;;;;;;6.50;3.92;;;;;16.20;101438.00;;;;10236896;28;20212;-76
2023/08/11 00:44:01;;;;;;;5.68;3.80;;;;;16.10;101430.00;;;;10255092;28;20212;-76
2023/08/11 00:49:04;;;;;;;7.47;4.10;;;;;16.00;101428.00;;;;10253858;28;21031;-76
2023/08/11 00:54:07;;;;;;;8.23;3.95;;;;;15.90;101427.00;;;;10235016;28;20308;-76
2023/08/11 00:59:09;;;;;;;6.80;4.05;;;;;15.80;101415.00;;;;10256915;28;20241;-76
2023/08/11 01:04:12;;;;;;;8.10;4.22;;;;;15.70;101399.00;;;;10256314;28;20208;-76
2023/08/11 01:09:38;;;;;;;4.88;4.05;;;;;15.60;101401.00;;;;10202430;28;20841;-76
2023/08/11 01:14:56;;;;;;;5.60;3.72;;;;;15.60;101405.00;;;;10236974;28;20223;-76
2023/08/11 01:19:59;;;;;;;7.40;4.07;;;;;15.50;101410.00;;;;10253944;28;20698;-76
2023/08/11 01:25:00;;;;;;;5.90;3.95;;;;;15.40;101410.00;;;;10252945;28;20238;-74
2023/08/11 01:30:05;;;;;;;10.15;4.70;;;;;15.30;101398.00;;;;10252758;28;21325;-76
2023/08/11 01:35:09;;;;;;;4.93;3.97;;;;;15.20;101397.00;;;;10253732;28;21340;-74
2023/08/11 01:40:10;;;;;;;6.97;4.45;;;;;15.20;101398.00;;;;10236340;28;20215;-75
2023/08/11 01:45:15;;;;;;;4.73;4.20;;;;;15.10;101404.00;;;;10236630;28;21659;-75
2023/08/11 01:50:18;;;;;;;5.70;4.37;;;;;15.10;101406.00;;;;10233255;28;20220;-76
2023/08/11 01:55:20;;;;;;;4.50;4.07;;;;;15.10;101415.00;;;;10253515;28;20230;-75
2023/08/11 02:00:21;;;;;;;6.65;4.45;;;;;15.00;101421.00;;;;10234375;28;20207;-75
2023/08/11 02:05:24;;;;;;;7.80;4.13;;;;;15.00;101406.00;;;;10251623;28;20694;-75
2023/08/11 02:10:25;;;;;;;6.57;4.30;;;;;15.00;101402.00;;;;10236193;28;20215;-76
2023/08/11 02:15:27;;;;;;;7.80;4.47;;;;;15.00;101399.00;;;;10252135;28;20303;-75
2023/08/11 02:20:29;;;;;;;5.60;4.30;;;;;15.10;101408.00;;;;10252679;28;20266;-75
2023/08/11 02:25:30;;;;;;;7.05;4.25;;;;;15.10;101404.00;;;;10232826;28;20222;-76
2023/08/11 02:30:32;;;;;;;7.83;4.83;;;;;15.20;101407.00;;;;10252677;28;20289;-76
2023/08/11 02:35:34;;;;;;;7.97;4.97;;;;;15.30;101407.00;;;;10250519;28;20265;-75
2023/08/11 02:40:35;;;;;;;9.60;4.85;;;;;15.30;101412.00;;;;10251530;28;20365;-74
2023/08/11 02:45:36;;;;;;;9.32;4.40;;;;;15.30;101410.00;;;;10249911;28;20841;-76
2023/08/11 02:50:38;;;;;;;8.17;4.47;;;;;15.30;101409.00;;;;10252755;28;20211;-75
2023/08/11 02:55:40;;;;;;;9.23;4.18;;;;;15.30;101403.00;;;;10250413;28;21263;-74
2023/08/11 03:00:42;;;;;;;7.53;3.78;;;;;15.30;101403.00;;;;10232630;28;20538;-75
2023/08/11 03:05:43;;;;;;;5.30;3.88;;;;;15.30;101400.00;;;;10218684;28;21995;-75
2023/08/11 03:10:45;;;;;;;5.87;3.97;;;;;15.30;101403.00;;;;10251223;28;20970;-75
2023/08/11 03:16:02;;;;;;;6.30;3.72;;;;;15.30;101396.00;;;;10236201;28;20246;-76
2023/08/11 03:21:07;;;;;;;9.13;4.03;;;;;15.20;101392.00;;;;10209799;28;20566;-76
2023/08/11 03:26:22;;;;;;;9.57;4.10;;;;;15.20;101393.00;;;;10240453;28;20203;-75
2023/08/11 03:31:26;;;;;;;6.17;4.00;;;;;15.10;101405.00;;;;10258375;28;20629;-75
2023/08/11 03:36:28;;;;;;;5.28;3.95;;;;;15.10;101409.00;;;;10240363;28;21471;-75
2023/08/11 03:41:30;;;;;;;8.93;3.92;;;;;15.00;101407.00;;;;10238776;28;21665;-74
2023/08/11 03:46:32;;;;;;;6.57;3.88;;;;;14.90;101407.00;;;;10258835;28;21039;-75
2023/08/11 03:51:34;;;;;;;5.67;3.90;;;;;14.90;101408.00;;;;10257637;28;20312;-76
2023/08/11 03:56:35;;;;;;;3.90;3.50;;;;;14.80;101396.00;;;;10253224;28;20875;-75
2023/08/11 04:01:38;;;;;;;4.53;3.70;;;;;14.80;101400.00;;;;10239300;28;21262;-75
2023/08/11 04:06:40;;;;;;;5.88;3.47;;;;;14.70;101396.00;;;;10238526;28;20715;-75
2023/08/11 04:11:42;;;;;;;5.03;3.38;;;;;14.70;101386.00;;;;10254268;28;20333;-75
2023/08/11 04:16:44;;;;;;;5.35;3.50;;;;;14.70;101384.00;;;;10254400;28;20523;-75
2023/08/11 04:21:45;;;;;;;5.90;3.27;;;;;14.80;101385.00;;;;10254603;28;20203;-75
2023/08/11 04:26:47;;;;;;;9.63;3.72;;;;;15.00;101376.00;;;;10254672;28;20209;-75
2023/08/11 04:31:49;;;;;;;3.87;3.30;;;;;15.10;101379.00;;;;10239670;28;20266;-75
2023/08/11 04:36:52;;;;;;;9.25;3.70;;;;;15.10;101376.00;;;;10253546;28;22019;-74
2023/08/11 04:41:55;;;;;;;6.95;3.53;;;;;15.20;101367.00;;;;10237638;28;21372;-75
2023/08/11 04:46:56;;;;;;;7.60;3.63;;;;;15.20;101369.00;;;;10253817;28;20212;-76
2023/08/11 04:51:59;;;;;;;7.43;3.75;;;;;15.30;101367.00;;;;10219885;28;20742;-76
2023/08/11 04:57:01;;;;;;;10.90;3.92;;;;;15.50;101360.00;;;;10254980;28;20203;-76
2023/08/11 05:02:02;;;;;;;6.38;3.15;;;;;15.70;101362.00;;;;10237579;28;20922;-75
2023/08/11 05:07:06;;;;;;;5.68;3.55;;;;;15.80;101362.00;;;;10254145;28;20642;-75
2023/08/11 05:12:08;;;;;;;4.50;3.42;;;;;16.00;101357.00;;;;10256881;28;20309;-75
2023/08/11 05:17:09;;;;;;;5.50;3.78;;;;;16.20;101355.00;;;;10256766;28;20221;-75
2023/08/11 05:22:12;;;;;;;7.78;3.78;;;;;16.40;101347.00;;;;10239714;28;20223;-76
2023/08/11 05:27:15;;;;;;;4.78;3.10;;;;;16.70;101345.00;;;;10241298;28;20218;-76
2023/08/11 05:32:16;;;;;;;6.93;3.50;;;;;17.00;101356.00;;;;10256428;28;20219;-74
2023/08/11 05:37:18;;;;;;;8.70;3.13;;;;;17.30;101366.00;;;;10240767;28;20207;-76
2023/08/11 05:42:20;;;;;;;5.88;3.22;;;;;17.70;101359.00;;;;10258984;28;20889;-75
2023/08/11 05:47:21;;;;;;;5.95;3.30;;;;;18.00;101364.00;;;;10256841;28;20207;-74
2023/08/11 05:52:23;;;;;;;4.65;2.97;;;;;18.40;101364.00;;;;10257383;28;20728;-75
2023/08/11 05:57:24;;;;;;;7.53;3.40;;;;;18.70;101369.00;;;;10258308;28;20234;-75
2023/08/11 06:02:25;;;;;;;11.93;3.22;;;;;19.20;101371.00;;;;10241833;28;20218;-75
2023/08/11 06:07:27;;;;;;;9.30;3.25;;;;;19.90;101366.00;;;;10259499;28;20226;-75
2023/08/11 06:12:28;;;;;;;4.82;2.75;;;;;20.60;101368.00;;;;10256588;28;20341;-75
2023/08/11 06:17:29;;;;;;;3.15;2.63;;;;;21.30;101373.00;;;;10238372;28;20219;-76
2023/08/11 06:22:31;;;;;;;5.15;3.10;;;;;21.90;101376.00;;;;10257372;28;20701;-75
2023/08/11 06:27:33;;;;;;;5.63;2.60;;;;;22.50;101388.00;;;;10254916;28;20818;-75
2023/08/11 06:32:34;;;;;;;7.13;2.90;;;;;23.00;101389.00;;;;10255715;28;20216;-76
2023/08/11 06:37:35;;;;;;;6.63;2.70;;;;;23.40;101382.00;;;;10254963;28;20215;-75
2023/08/11 06:42:38;;;;;;;7.65;3.25;;;;;23.80;101390.00;;;;10236686;28;20207;-76
2023/08/11 06:47:43;;;;;;;5.53;2.50;;;;;24.20;101386.00;;;;10235450;28;20200;-76
2023/08/11 06:52:44;;;;;;;6.00;2.60;;;;;24.50;101391.00;;;;10262593;28;21015;-76
2023/08/11 06:57:45;;;;;;;4.13;2.35;;;;;24.80;101389.00;;;;10242641;28;20218;-75
2023/08/11 07:02:47;;;;;;;4.40;2.35;;;;;25.00;101391.00;;;;10244765;28;20238;-76
2023/08/11 07:07:48;;;;;;;5.57;2.20;;;;;25.30;101388.00;;;;10263890;28;20203;-75
2023/08/11 07:12:50;;;;;;;4.60;2.55;;;;;25.60;101392.00;;;;10260434;28;20235;-75
2023/08/11 07:17:51;;;;;;;5.38;2.45;;;;;26.00;101387.00;;;;10263443;28;20218;-76
2023/08/11 07:22:53;;;;;;;6.15;2.53;;;;;26.40;101389.00;;;;10262676;28;20443;-77
2023/08/11 07:27:54;;;;;;;6.32;2.70;;;;;26.80;101395.00;;;;10258690;28;20203;-76
2023/08/11 07:32:56;;;;;;;2.95;2.45;;;;;26.80;101394.00;;;;10242325;28;20720;-76
2023/08/11 07:37:58;;;;;;;5.57;2.20;;;;;26.80;101394.00;;;;10245078;28;21710;-76
2023/08/11 07:42:59;;;;;;;5.07;2.65;;;;;27.20;101400.00;;;;10242330;28;20212;-76
2023/08/11 07:48:01;;;;;;;5.10;2.35;;;;;27.70;101401.00;;;;10243111;28;20284;-76
2023/08/11 07:53:03;;;;;;;5.50;2.67;;;;;28.30;101396.00;;;;10243574;28;20361;-77
2023/08/11 07:58:04;;;;;;;5.57;2.13;;;;;28.90;101406.00;;;;10243866;28;20211;-76
2023/08/11 08:03:06;;;;;;;5.20;2.15;;;;;29.30;101403.00;;;;10261027;28;20204;-76
2023/08/11 08:08:07;;;;;;;4.32;2.58;;;;;30.00;101404.00;;;;10261307;28;20222;-77
2023/08/11 08:13:08;;;;;;;6.05;2.55;;;;;30.40;101405.00;;;;10261238;28;20231;-76
2023/08/11 08:18:10;;;;;;;3.00;2.20;;;;;30.60;101409.00;;;;10262518;28;20598;-77
2023/08/11 08:23:12;;;;;;;4.95;2.30;;;;;30.70;101406.00;;;;10247146;28;20327;-77
2023/08/11 08:28:15;;;;;;;1.90;1.75;;;;;30.50;101398.00;;;;10259850;28;20689;-77
2023/08/11 08:33:16;;;;;;;3.35;2.10;;;;;30.80;101393.00;;;;10261962;28;20219;-76
2023/08/11 08:38:17;;;;;;;4.82;2.17;;;;;31.10;101395.00;;;;10265471;28;20289;-76
2023/08/11 08:43:19;;;;;;;4.50;1.98;;;;;31.10;101399.00;;;;10263359;28;20270;-76
2023/08/11 08:48:32;;;;;;;5.85;1.85;;;;;31.60;101392.00;;;;10265433;28;20231;-77
2023/08/11 08:53:33;;;;;;;2.55;1.75;;;;;31.80;101390.00;;;;10263794;28;20265;-77
2023/08/11 08:58:35;;;;;;;2.38;1.92;;;;;32.00;101395.00;;;;10263577;28;21356;-77
2023/08/11 09:03:37;;;;;;;2.35;1.70;;;;;32.50;101386.00;;;;10247956;28;20208;-77
2023/08/11 09:08:39;;;;;;;3.85;2.20;;;;;32.50;101390.00;;;;10265879;28;21512;-76
2023/08/11 09:13:44;;;;;;;3.53;2.45;;;;;32.90;101399.00;;;;10263872;28;20261;-76
2023/08/11 09:18:45;;;;;;;2.25;1.90;;;;;33.20;101397.00;;;;10268055;28;20295;-77
2023/08/11 09:23:47;;;;;;;4.78;1.88;;;;;33.30;101395.00;;;;10251097;28;20300;-77
2023/08/11 09:28:52;;;;;;;5.38;2.20;;;;;33.50;101401.00;;;;10267442;28;20204;-77
2023/08/11 09:33:53;;;;;;;4.63;2.05;;;;;33.80;101397.00;;;;10270740;28;20312;-77
2023/08/11 09:38:55;;;;;;;5.63;2.15;;;;;33.90;101391.00;;;;10265338;28;20294;-78
2023/08/11 09:43:56;;;;;;;4.47;2.35;;;;;33.90;101394.00;;;;10259170;28;20218;-77
2023/08/11 09:48:58;;;;;;;4.35;2.50;;;;;33.70;101390.00;;;;10259594;28;21897;-77
2023/08/11 09:54:03;;;;;;;5.00;2.45;;;;;33.70;101390.00;;;;10260233;28;20755;-77
2023/08/11 09:59:10;;;;;;;4.65;2.20;;;;;33.50;101396.00;;;;10235190;28;20211;-78
2023/08/11 10:04:30;;;;;;;3.40;2.53;;;;;34.00;101400.00;;;;10256206;28;20734;-77
2023/08/11 10:09:33;;;;;;;9.23;2.58;;;;;34.40;101395.00;;;;10241376;28;20199;-77
2023/08/11 10:14:38;;;;;;;5.82;2.40;;;;;34.40;101389.00;;;;10245361;28;20226;-78
2023/08/11 10:19:40;;;;;;;5.45;2.10;;;;;34.20;101409.00;;;;10263339;28;20234;-80
2023/08/11 10:24:43;;;;;;;3.42;2.20;;;;;34.10;101398.00;;;;10239685;28;20902;-79
2023/08/11 10:29:47;;;;;;;4.95;2.15;;;;;33.90;101397.00;;;;10235498;28;20604;-78
2023/08/11 10:34:52;;;;;;;6.80;2.17;;;;;34.60;101406.00;;;;10234830;28;20223;-78
2023/08/11 10:40:05;;;;;;;4.15;1.92;;;;;35.20;101395.00;;;;10257843;28;20328;-78
2023/08/11 10:45:10;;;;;;;5.15;2.15;;;;;35.30;101401.00;;;;10254171;28;21018;-78
2023/08/11 10:50:14;;;;;;;3.58;2.17;;;;;35.20;101397.00;;;;10252367;28;20231;-77
2023/08/11 10:55:15;;;;;;;3.75;2.25;;;;;35.70;101395.00;;;;10239260;28;20637;-77
2023/08/11 11:00:17;;;;;;;5.32;2.33;;;;;35.90;101397.00;;;;10254326;28;20218;-77
2023/08/11 11:05:21;;;;;;;3.30;2.00;;;;;35.90;101399.00;;;;10259495;28;20227;-78
2023/08/11 11:10:22;;;;;;;5.15;2.05;;;;;36.00;101406.00;;;;10253969;28;20294;-76
2023/08/11 11:15:33;;;;;;;5.47;2.08;;;;;36.00;101401.00;;;;10261396;28;20496;-77
2023/08/11 11:20:35;;;;;;;5.45;2.28;;;;;36.30;101397.00;;;;10255135;28;20219;-78
2023/08/11 11:25:36;;;;;;;4.00;1.80;;;;;36.10;101396.00;;;;10251212;28;21647;-78
2023/08/11 11:30:38;;;;;;;5.05;1.92;;;;;36.30;101400.00;;;;10246478;28;20354;-78
2023/08/11 11:35:40;;;;;;;6.57;2.13;;;;;35.80;101397.00;;;;10233442;28;20229;-76
2023/08/11 11:40:41;;;;;;;8.55;2.13;;;;;35.80;101401.00;;;;10263281;28;20222;-77
2023/08/11 11:45:45;;;;;;;2.92;2.05;;;;;36.30;101383.00;;;;10264023;28;20334;-77
2023/08/11 11:50:47;;;;;;;5.35;2.42;;;;;36.40;101396.00;;;;10260320;28;20241;-76
2023/08/11 11:55:51;;;;;;;3.08;1.95;;;;;35.60;101384.00;;;;10263126;28;20231;-77
2023/08/11 12:00:53;;;;;;;6.35;1.85;;;;;35.20;101381.00;;;;10262632;28;20257;-76
2023/08/11 12:05:55;;;;;;;5.38;2.50;;;;;35.90;101374.00;;;;10271985;28;20211;-77
2023/08/11 12:10:59;;;;;;;3.90;2.03;;;;;36.10;101377.00;;;;10270771;28;20210;-77
2023/08/11 12:16:02;;;;;;;4.80;1.90;;;;;35.90;101375.00;;;;10248664;28;20215;-78
2023/08/11 12:21:04;;;;;;;2.85;2.30;;;;;35.80;101378.00;;;;10220364;28;20709;-77
2023/08/11 12:26:07;;;;;;;3.97;1.90;;;;;36.00;101380.00;;;;10237170;28;20846;-76
2023/08/11 12:31:09;;;;;;;6.13;2.33;;;;;36.00;101377.00;;;;10257590;28;20211;-79
2023/08/11 12:36:15;;;;;;;7.15;2.40;;;;;35.90;101370.00;;;;10237776;28;20219;-78
2023/08/11 12:41:17;;;;;;;3.83;2.13;;;;;35.50;101375.00;;;;10258773;28;20933;-79
2023/08/11 12:46:19;;;;;;;4.20;2.25;;;;;35.50;101369.00;;;;10251573;28;20678;-78
2023/08/11 12:51:20;;;;;;;5.38;2.28;;;;;35.80;101355.00;;;;10266634;28;20698;-77
2023/08/11 12:56:21;;;;;;;8.73;2.33;;;;;35.50;101366.00;;;;10268114;28;20223;-77
2023/08/11 13:01:23;;;;;;;5.47;2.28;;;;;35.40;101352.00;;;;10270046;28;20211;-77
2023/08/11 13:06:24;;;;;;;7.45;2.25;;;;;36.00;101344.00;;;;10249479;28;20212;-77
2023/08/11 13:11:25;;;;;;;4.95;2.17;;;;;35.90;101352.00;;;;10266873;28;20215;-77
2023/08/11 13:16:27;;;;;;;5.38;2.70;;;;;35.20;101359.00;;;;10265253;28;20313;-76
2023/08/11 13:21:32;;;;;;;3.42;2.40;;;;;34.30;101363.00;;;;10268625;28;20215;-77
2023/08/11 13:26:33;;;;;;;6.20;2.55;;;;;33.80;101360.00;;;;10258720;28;20203;-78
2023/08/11 13:31:35;;;;;;;3.72;2.50;;;;;33.70;101360.00;;;;10262613;28;21516;-75
2023/08/11 13:36:36;;;;;;;4.13;2.65;;;;;33.30;101365.00;;;;10253325;28;20953;-76
2023/08/11 13:41:39;;;;;;;4.50;2.30;;;;;32.90;101358.00;;;;10256225;28;20230;-77
2023/08/11 13:46:41;;;;;;;4.18;2.78;;;;;32.30;101360.00;;;;10242234;28;20298;-77
2023/08/11 13:51:42;;;;;;;4.55;2.63;;;;;33.40;101337.00;;;;10259726;28;20246;-76
2023/08/11 13:56:43;;;;;;;5.20;2.40;;;;;33.40;101346.00;;;;10237275;28;20519;-77
2023/08/11 14:01:45;;;;;;;3.63;2.35;;;;;34.30;101342.00;;;;10251114;28;20206;-77
2023/08/11 14:06:46;;;;;;;4.00;2.38;;;;;34.50;101330.00;;;;10240895;28;20349;-78
2023/08/11 14:11:48;;;;;;;2.92;2.30;;;;;34.10;101342.00;;;;10264860;28;20207;-77
2023/08/11 14:16:49;;;;;;;5.32;2.63;;;;;34.10;101341.00;;;;10268197;28;21964;-78
2023/08/11 14:21:51;;;;;;;5.32;2.75;;;;;32.80;101344.00;;;;10261531;28;20226;-79
2023/08/11 14:26:53;;;;;;;6.75;2.75;;;;;32.00;101344.00;;;;10247405;28;20202;-77
2023/08/11 14:31:54;;;;;;;5.38;2.45;;;;;32.20;101341.00;;;;10241857;28;20337;-78
2023/08/11 14:37:02;;;;;;;3.47;2.58;;;;;31.90;101340.00;;;;10260297;28;20306;-77
2023/08/11 14:42:03;;;;;;;3.00;2.65;;;;;32.50;101339.00;;;;10260754;28;20327;-75
2023/08/11 14:47:07;;;;;;;4.18;2.97;;;;;32.20;101347.00;;;;10256850;28;21577;-76
2023/08/11 14:52:09;;;;;;;6.70;3.40;;;;;30.70;101350.00;;;;10258184;28;20539;-76
2023/08/11 14:57:12;;;;;;;3.65;3.03;;;;;30.40;101336.00;;;;10255990;28;20227;-76
2023/08/11 15:02:14;;;;;;;6.40;3.30;;;;;32.60;101330.00;;;;10258350;28;20200;-76
2023/08/11 15:07:16;;;;;;;7.55;3.67;;;;;32.60;101329.00;;;;10268629;28;20290;-77
2023/08/11 15:12:19;;;;;;;6.80;4.00;;;;;31.00;101340.00;;;;10272329;28;20316;-76
2023/08/11 15:17:23;;;;;;;8.70;4.00;;;;;30.30;101328.00;;;;10273002;28;20203;-77
2023/08/11 15:22:24;;;;;;;9.00;3.72;;;;;30.10;101330.00;;;;10269476;28;20565;-77
2023/08/11 15:27:25;;;;;;;8.20;3.80;;;;;29.60;101322.00;;;;10235310;28;20218;-77
2023/08/11 15:32:27;;;;;;;7.55;3.80;;;;;29.30;101321.00;;;;10265486;28;20215;-77
2023/08/11 15:37:28;;;;;;;7.22;4.25;;;;;29.20;101314.00;;;;10265504;28;20218;-78
2023/08/11 15:42:29;;;;;;;4.57;3.83;;;;;29.10;101321.00;;;;10245709;28;20326;-76
2023/08/11 15:47:31;;;;;;;6.47;4.20;;;;;28.90;101311.00;;;;10244896;28;20231;-77
2023/08/11 15:52:32;;;;;;;7.78;3.67;;;;;28.90;101315.00;;;;10264005;28;20261;-78
2023/08/11 15:57:33;;;;;;;8.30;4.53;;;;;29.00;101314.00;;;;10242563;28;20346;-77
2023/08/11 16:02:34;;;;;;;7.00;4.03;;;;;28.90;101327.00;;;;10260460;28;20207;-76
2023/08/11 16:07:36;;;;;;;7.72;3.90;;;;;28.70;101332.00;;;;10260553;28;20199;-78
2023/08/11 16:12:37;;;;;;;7.97;3.83;;;;;28.30;101337.00;;;;10264999;28;20345;-77
2023/08/11 16:17:39;;;;;;;7.38;3.92;;;;;28.10;101344.00;;;;10261413;28;20341;-76
2023/08/11 16:22:41;;;;;;;10.05;3.70;;;;;27.60;101349.00;;;;10241277;28;20211;-77
2023/08/11 16:27:42;;;;;;;12.27;4.80;;;;;27.20;101358.00;;;;10244214;28;21448;-76
2023/08/11 16:32:43;;;;;;;12.18;4.85;;;;;27.20;101365.00;;;;10240392;28;20223;-76
2023/08/11 16:37:44;;;;;;;12.00;4.85;;;;;26.80;101363.00;;;;10238664;28;20211;-76
2023/08/11 16:42:46;;;;;;;14.20;5.32;;;;;26.50;101372.00;;;;10256313;28;20777;-76
2023/08/11 16:47:47;;;;;;;12.52;5.22;;;;;26.40;101378.00;;;;10258635;28;20222;-76
2023/08/11 16:52:53;;;;;;;15.43;5.50;;;;;26.10;101376.00;;;;10257763;28;20314;-77
2023/08/11 16:57:54;;;;;;;14.98;5.38;;;;;25.80;101363.00;;;;10241582;28;20724;-77
2023/08/11 17:02:55;;;;;;;13.50;5.55;;;;;25.40;101370.00;;;;10238590;28;22369;-76
2023/08/11 17:07:57;;;;;;;18.45;5.40;;;;;25.20;101372.00;;;;10257873;28;20620;-76
2023/08/11 17:12:58;;;;;;;12.57;6.07;;;;;25.10;101371.00;;;;10224781;28;21667;-78
2023/08/11 17:18:03;;;;;;;11.55;5.43;;;;;24.90;101374.00;;;;10240890;28;20210;-77
2023/08/11 17:23:08;;;;;;;12.73;4.90;;;;;24.90;101372.00;;;;10260407;28;20211;-77
2023/08/11 17:28:09;;;;;;;13.00;5.13;;;;;24.70;101365.00;;;;10261118;28;20211;-77
2023/08/11 17:33:12;;;;;;;14.40;4.93;;;;;24.60;101366.00;;;;10245905;28;20934;-78
2023/08/11 17:38:14;;;;;;;11.70;5.45;;;;;24.40;101359.00;;;;10259872;28;20807;-78
2023/08/11 17:43:15;;;;;;;11.18;5.13;;;;;24.30;101365.00;;;;10225896;28;20916;-77
2023/08/11 17:48:16;;;;;;;13.98;5.43;;;;;24.40;101370.00;;;;10258409;28;20723;-76
2023/08/11 17:53:18;;;;;;;14.65;5.93;;;;;24.50;101369.00;;;;10254722;28;20250;-78
2023/08/11 17:58:19;;;;;;;11.35;5.18;;;;;24.40;101368.00;;;;10254467;28;20223;-77
2023/08/11 18:03:20;;;;;;;9.23;4.43;;;;;24.40;101364.00;;;;10254356;28;20204;-78
2023/08/11 18:08:22;;;;;;;11.30;4.60;;;;;24.20;101355.00;;;;10242157;28;20989;-78
2023/08/11 18:13:23;;;;;;;10.18;4.50;;;;;24.00;101361.00;;;;10260273;28;20219;-78
2023/08/11 18:18:28;;;;;;;8.63;4.80;;;;;23.90;101363.00;;;;10257305;28;20207;-76
2023/08/11 18:23:32;;;;;;;15.70;5.15;;;;;23.70;101363.00;;;;10260756;28;20819;-77
2023/08/11 18:28:36;;;;;;;8.75;4.93;;;;;23.60;101356.00;;;;10258909;28;20249;-77
2023/08/11 18:33:37;;;;;;;11.48;4.68;;;;;23.50;101355.00;;;;10251391;28;20227;-76
2023/08/11 18:38:38;;;;;;;11.15;4.90;;;;;23.40;101363.00;;;;10254552;28;20902;-77
2023/08/11 18:43:40;;;;;;;8.55;4.93;;;;;23.40;101372.00;;;;10255186;28;20215;-76
2023/08/11 18:48:42;;;;;;;7.75;4.82;;;;;23.20;101367.00;;;;10239386;28;20211;-77
2023/08/11 18:53:43;;;;;;;14.63;4.80;;;;;23.10;101346.00;;;;10237192;28;20223;-76
2023/08/11 18:58:45;;;;;;;12.50;5.70;;;;;23.00;101356.00;;;;10251192;28;20215;-77
2023/08/11 19:03:46;;;;;;;10.35;5.18;;;;;22.90;101363.00;;;;10234640;28;20297;-77
2023/08/11 19:08:48;;;;;;;12.88;5.13;;;;;22.90;101361.00;;;;10259171;28;20207;-77
2023/08/11 19:13:52;;;;;;;12.40;5.40;;;;;22.80;101364.00;;;;10259217;28;20796;-76
2023/08/11 19:18:54;;;;;;;11.18;4.90;;;;;22.80;101358.00;;;;10258363;28;20208;-76
2023/08/11 19:23:55;;;;;;;8.93;4.65;;;;;22.70;101360.00;;;;10225025;28;20203;-77
2023/08/11 19:28:57;;;;;;;11.13;4.50;;;;;22.60;101369.00;;;;10260089;28;20207;-77
2023/08/11 19:33:58;;;;;;;12.50;4.80;;;;;22.50;101366.00;;;;10240553;28;21249;-75
2023/08/11 19:39:02;;;;;;;10.68;4.40;;;;;22.50;101375.00;;;;10257044;28;20965;-74
2023/08/11 19:44:04;;;;;;;8.45;3.92;;;;;22.50;101366.00;;;;10238074;28;20262;-76
2023/08/11 19:49:05;;;;;;;10.90;3.78;;;;;22.40;101364.00;;;;10255587;28;20227;-77
2023/08/11 19:54:06;;;;;;;6.68;3.20;;;;;22.40;101373.00;;;;10253626;28;20223;-77
2023/08/11 19:59:08;;;;;;;9.70;3.95;;;;;22.40;101381.00;;;;10243754;28;20210;-77
2023/08/11 20:04:09;;;;;;;7.07;3.83;;;;;22.20;101382.00;;;;10262354;28;20237;-75
2023/08/11 20:09:12;;;;;;;5.82;3.35;;;;;22.10;101377.00;;;;10259813;28;21926;-76
2023/08/11 20:14:13;;;;;;;8.15;3.72;;;;;22.00;101377.00;;;;10256012;28;20571;-78
2023/08/11 20:19:15;;;;;;;8.35;3.72;;;;;21.90;101373.00;;;;10259744;28;20215;-76
2023/08/11 20:24:16;;;;;;;8.45;4.25;;;;;21.90;101366.00;;;;10260754;28;21892;-77
2023/08/11 20:29:17;;;;;;;14.32;4.40;;;;;21.80;101366.00;;;;10240175;28;20842;-77
2023/08/11 20:34:20;;;;;;;11.50;4.60;;;;;21.80;101371.00;;;;10240585;28;20241;-75
2023/08/11 20:39:22;;;;;;;8.90;4.53;;;;;21.70;101362.00;;;;10266024;28;20211;-77
2023/08/11 20:44:24;;;;;;;12.93;4.38;;;;;21.60;101358.00;;;;10264260;28;20292;-76
2023/08/11 20:49:26;;;;;;;11.65;4.20;;;;;21.50;101359.00;;;;10260923;28;20803;-77
2023/08/11 20:54:27;;;;;;;9.85;4.50;;;;;21.30;101349.00;;;;10257337;28;20586;-78
2023/08/11 20:59:30;;;;;;;7.50;4.47;;;;;21.20;101350.00;;;;10237631;28;20251;-76
2023/08/11 21:04:31;;;;;;;10.05;4.82;;;;;21.10;101357.00;;;;10236670;28;20725;-76
2023/08/11 21:09:33;;;;;;;11.30;3.30;;;;;20.90;101355.00;;;;10253542;28;20258;-76
2023/08/11 21:14:34;;;;;;;6.85;3.78;;;;;20.80;101346.00;;;;10235153;28;20216;-77
2023/08/11 21:19:35;;;;;;;11.60;3.90;;;;;20.70;101345.00;;;;10250864;28;21578;-76
2023/08/11 21:24:37;;;;;;;8.18;3.90;;;;;20.60;101359.00;;;;10253653;28;20215;-76
2023/08/11 21:29:38;;;;;;;7.25;3.47;;;;;20.50;101342.00;;;;10253170;28;20411;-77
2023/08/11 21:34:39;;;;;;;7.50;3.78;;;;;20.50;101349.00;;;;10255545;28;20219;-76
2023/08/11 21:39:41;;;;;;;12.77;4.30;;;;;20.40;101344.00;;;;10257801;28;21758;-74
2023/08/11 21:44:42;;;;;;;7.70;4.28;;;;;20.40;101343.00;;;;10255689;28;20218;-75
2023/08/11 21:49:43;;;;;;;11.80;4.85;;;;;20.40;101352.00;;;;10237141;28;21170;-76
2023/08/11 21:54:45;;;;;;;9.88;4.53;;;;;20.40;101348.00;;;;10235482;28;20528;-75
2023/08/11 21:59:47;;;;;;;7.57;4.90;;;;;20.40;101342.00;;;;10255493;28;20219;-76
2023/08/11 22:04:48;;;;;;;14.23;6.07;;;;;20.40;101335.00;;;;10252369;28;20204;-76
2023/08/11 22:09:49;;;;;;;13.45;7.07;;;;;20.50;101324.00;;;;10252623;28;20222;-75
2023/08/11 22:14:51;;;;;;;17.23;7.53;;;;;20.50;101332.00;;;;10232555;28;21518;-76
2023/08/11 22:19:52;;;;;;;11.32;7.53;;;;;20.50;101327.00;;;;10250064;28;20294;-75
2023/08/11 22:25:02;;;;;;;14.02;8.15;;;;;20.50;101300.00;;;;10257166;28;21326;-74
2023/08/11 22:30:04;;;;;;;12.27;7.80;;;;;20.60;101311.00;;;;10255872;28;20580;-76
2023/08/11 22:35:07;;;;;;;13.65;7.93;;;;;20.60;101314.00;;;;10232184;28;22026;-76
2023/08/11 22:40:08;;;;;;;13.38;7.93;;;;;20.60;101304.00;;;;10238944;28;20212;-76
2023/08/11 22:45:10;;;;;;;12.20;7.70;;;;;20.60;101304.00;;;;10254090;28;20213;-76
2023/08/11 22:50:11;;;;;;;11.93;6.88;;;;;20.60;101299.00;;;;10238931;28;20934;-76
2023/08/11 22:55:12;;;;;;;16.45;7.10;;;;;20.60;101286.00;;;;10254154;28;21126;-75
2023/08/11 23:00:14;;;;;;;14.07;7.60;;;;;20.60;101275.00;;;;10255932;28;20568;-76
2023/08/11 23:05:16;;;;;;;15.48;8.05;;;;;20.60;101277.00;;;;10254563;28;20207;-76
2023/08/11 23:10:17;;;;;;;13.98;8.57;;;;;20.60;101280.00;;;;10257140;28;20632;-76
2023/08/11 23:15:19;;;;;;;13.25;7.35;;;;;20.50;101274.00;;;;10257020;28;20305;-76
2023/08/11 23:20:20;;;;;;;14.80;7.40;;;;;20.50;101273.00;;;;10237450;28;21284;-76
2023/08/11 23:25:21;;;;;;;14.43;7.78;;;;;20.50;101266.00;;;;10255652;28;20294;-76
2023/08/11 23:30:24;;;;;;;15.00;7.47;;;;;20.50;101261.00;;;;10257535;28;20207;-77
2023/08/11 23:35:26;;;;;;;14.15;7.10;;;;;20.50;101265.00;;;;10259423;28;20223;-76
2023/08/11 23:40:27;;;;;;;14.73;7.53;;;;;20.50;101250.00;;;;10263337;28;20312;-74
2023/08/11 23:45:30;;;;;;;15.60;7.38;;;;;20.40;101255.00;;;;10261284;28;20215;-76
2023/08/11 23:50:31;;;;;;;14.38;7.78;;;;;20.40;101249.00;;;;10261403;28;20988;-76
2023/08/11 23:55:32;;;;;;;10.48;5.97;;;;;20.40;101242.00;;;;10261461;28;20771;-76
